Hurlburt Field
KHRT : now visible

Airfield :











YOU CAN JOIN US ON...

 
LOGIN :

Register | Disclaimer

   EN    FR    IT 

 









Legend :    VFR   Marginal VFR   IFR   Intensive IFR   Very Intensive IFR
Visi :
Ceiling :
>= 8 km
>= 3000ft
5 to 8 km
1000 to 3000 ft
1500m to 5 km
500 to 1000 ft
800 to 1500m
200 to 500 ft
< 800m
< 200 ft
Symbols :   Thunderstorms  Fog  Heavy snow  Heavy precipitations  Wind > 20 kt






- Airport Elevation : 38 ft


KHRT - Hurlburt Field

CURRENT METAR :
  • 241856Z 14012KT 10SM SCT016 BKN140 29/24 A2999 RMK AO2A SLPNO T02860239 $

EXPIRED METARs :
  • 241821Z AUTO 14013KT 10SM -RA SCT013 SCT180 28/24 A3000 RMK AO2 RAB21 SLPNO $
  • 241811Z AUTO 12009KT 10SM SCT012 BKN190 28/24 A3000 RMK AO2 SLPNO $
  • 241806Z AUTO 13011KT 10SM SCT012 BKN017 BKN180 28/24 A3001 RMK AO2 CIG 017V180 SLPNO $

TAF TAF KHRT
Valid from the 24 at 18:00 until the 26 at 00:00 UTC


241800Z 2418/2524 12009KT 9999 SCT010 BKN160 QNH2996INS
BECMG 2420/2421 12009KT 9999 SCT020 QNH2995INS
BECMG 2501/2502 14009KT 9999 BKN010 BKN160 QNH2994INS
BECMG 2511/2512 13010G20KT 8000 -SHRA VCTS BKN010CB BKN100 QNH2996INS
BECMG 2520/2521 16012KT 9999 NSW BKN010 OVC100 QNH2995INS TX28/2418Z TN24/2505Z
KZJX FIR / North America



MET'MAP, your aeronautical weather chart ! - Copyright ORBIFLY December 2007 - Disclaimer

ORBIFLY MET'MAP TEAM :

Programming & Development : Alexandra Zaïnal
Original concept : Baudouin d'Aumeries
Technical & hardware support : Manuel Goepfert
Assistance : Marc-Olivier Méhu

Contact : metmap@orbifly.com




SOURCES & CREDITS :

   NOAA       Earth
Advisory